createdAt,value
2023-03-04T00:02:08.947Z,37.72
2023-03-04T00:04:35.443Z,39.53
2023-03-04T00:07:01.886Z,41.40
2023-03-04T00:09:28.277Z,39.67
2023-03-04T00:11:54.658Z,40.60
2023-03-04T00:14:21.343Z,38.65
2023-03-04T00:16:49.113Z,39.95
2023-03-04T00:19:15.640Z,37.97
2023-03-04T00:21:42.202Z,39.28
2023-03-04T00:24:10.621Z,38.92
2023-03-04T00:26:36.994Z,38.20
2023-03-04T00:29:03.375Z,39.47
2023-03-04T00:31:29.807Z,39.05
2023-03-04T00:33:56.207Z,38.78
2023-03-04T00:36:22.604Z,40.55
2023-03-04T00:38:49.005Z,40.58
2023-03-04T00:41:15.525Z,38.83
2023-03-04T00:43:41.892Z,38.25
2023-03-04T00:46:08.526Z,38.08
2023-03-04T00:48:35.017Z,38.05
2023-03-04T00:51:01.412Z,37.25
2023-03-04T00:53:27.865Z,35.75
2023-03-04T00:55:54.261Z,35.53
2023-03-04T00:58:20.710Z,35.20
2023-03-04T01:00:48.102Z,35.22
2023-03-04T01:03:14.500Z,35.67
2023-03-04T01:05:41.067Z,35.53
2023-03-04T01:08:13.353Z,34.75
2023-03-04T01:10:39.758Z,36.50
2023-03-04T01:13:06.242Z,39.05
2023-03-04T01:15:33.702Z,38.03
2023-03-04T01:18:00.150Z,40.25
2023-03-04T01:20:26.705Z,35.50
2023-03-04T01:22:53.119Z,34.53
2023-03-04T01:25:19.622Z,35.83
2023-03-04T01:27:51.905Z,33.83
2023-03-04T01:30:18.561Z,33.33
2023-03-04T01:32:44.984Z,32.75
2023-03-04T01:35:11.507Z,32.92
2023-03-04T01:37:37.976Z,32.10
2023-03-04T01:40:05.789Z,30.45
2023-03-04T01:42:35.952Z,30.13
2023-03-04T01:45:03.149Z,29.63
2023-03-04T01:47:31.706Z,31.65
2023-03-04T01:50:00.161Z,31.73
2023-03-04T01:52:27.866Z,30.73
2023-03-04T01:54:55.080Z,32.13
2023-03-04T01:57:24.017Z,31.48
2023-03-04T02:00:19.241Z,31.38
2023-03-04T02:02:48.106Z,29.63
2023-03-04T02:05:14.802Z,29.88
2023-03-04T02:07:43.674Z,29.83
2023-03-04T02:10:12.214Z,29.05
2023-03-04T02:12:39.629Z,31.15
2023-03-04T02:15:06.885Z,30.50
2023-03-04T02:17:33.559Z,30.60
2023-03-04T02:20:31.727Z,27.27
2023-03-04T02:23:10.789Z,26.02
2023-03-04T02:25:45.274Z,29.58
2023-03-04T02:28:11.843Z,27.70
2023-03-04T02:30:38.292Z,29.60
2023-03-04T02:33:04.956Z,28.42
2023-03-04T02:35:31.958Z,27.60
2023-03-04T02:37:58.349Z,26.98
2023-03-04T02:40:29.844Z,28.30
2023-03-04T02:43:00.093Z,27.67
2023-03-04T02:45:31.088Z,25.23
2023-03-04T02:47:57.487Z,25.65
2023-03-04T02:50:24.794Z,25.35
2023-03-04T02:52:51.174Z,26.42
2023-03-04T02:55:17.557Z,25.95
2023-03-04T02:57:43.928Z,25.23
2023-03-04T03:00:11.016Z,25.40
2023-03-04T03:02:37.416Z,25.08
2023-03-04T03:05:04.237Z,25.80
2023-03-04T03:07:30.592Z,25.67
2023-03-04T03:09:56.969Z,26.27
2023-03-04T03:12:23.356Z,27.33
2023-03-04T03:14:49.766Z,28.15
2023-03-04T03:17:16.193Z,25.77
2023-03-04T03:19:42.734Z,26.90
2023-03-04T03:22:09.431Z,27.38
2023-03-04T03:24:35.857Z,29.52
2023-03-04T03:27:02.368Z,28.00
2023-03-04T03:29:28.806Z,27.65
2023-03-04T03:31:56.831Z,27.80
2023-03-04T03:34:23.439Z,29.70
2023-03-04T03:36:49.980Z,31.00
2023-03-04T03:39:16.398Z,29.80
2023-03-04T03:41:42.790Z,31.05
2023-03-04T03:44:09.188Z,31.35
2023-03-04T03:46:35.678Z,31.45
2023-03-04T03:49:02.095Z,32.22
2023-03-04T03:51:28.663Z,30.38
2023-03-04T03:53:55.048Z,32.17
2023-03-04T03:56:21.455Z,31.83
2023-03-04T03:58:47.854Z,32.80
2023-03-04T04:01:15.356Z,34.75
2023-03-04T04:03:41.823Z,32.70
2023-03-04T04:06:08.233Z,33.53
2023-03-04T04:08:34.666Z,33.00
2023-03-04T04:11:01.163Z,35.10
2023-03-04T04:13:27.718Z,36.55
2023-03-04T04:15:54.329Z,34.60
2023-03-04T04:18:20.750Z,37.80
2023-03-04T04:20:47.469Z,34.78
2023-03-04T04:23:13.853Z,33.97
2023-03-04T04:25:40.262Z,35.47
2023-03-04T04:28:06.660Z,37.67
2023-03-04T04:30:33.101Z,34.97
2023-03-04T04:33:01.780Z,34.03
2023-03-04T04:35:28.678Z,35.65
2023-03-04T04:37:55.068Z,34.40
2023-03-04T04:40:21.521Z,34.08
2023-03-04T04:42:48.021Z,33.35
2023-03-04T04:45:14.397Z,34.08
2023-03-04T04:47:40.798Z,35.13
2023-03-04T04:50:07.510Z,34.47
2023-03-04T04:52:33.977Z,34.40
2023-03-04T04:55:00.466Z,35.28
2023-03-04T04:57:26.854Z,37.60
2023-03-04T04:59:53.244Z,34.63
2023-03-04T05:02:19.885Z,35.35
2023-03-04T05:04:46.346Z,34.60
2023-03-04T05:07:12.795Z,32.75
2023-03-04T05:09:39.184Z,32.50
2023-03-04T05:12:05.864Z,34.20
2023-03-04T05:14:32.287Z,32.90
2023-03-04T05:16:58.669Z,32.30
2023-03-04T05:19:25.231Z,33.35
2023-03-04T05:21:51.617Z,35.22
2023-03-04T05:24:18.113Z,34.10
2023-03-04T05:26:44.545Z,35.65
2023-03-04T05:29:10.927Z,35.97
2023-03-04T05:31:37.451Z,35.42
2023-03-04T05:34:04.030Z,36.08
2023-03-04T05:36:30.413Z,34.53
2023-03-04T05:38:57.202Z,35.22
2023-03-04T05:41:23.738Z,32.33
2023-03-04T05:43:50.420Z,32.97
2023-03-04T05:46:19.268Z,32.38
2023-03-04T05:48:45.834Z,32.25
2023-03-04T05:51:12.243Z,32.70
2023-03-04T05:53:39.932Z,31.55
2023-03-04T05:56:08.357Z,32.22
2023-03-04T05:58:34.887Z,32.75
2023-03-04T06:01:09.027Z,33.95
2023-03-04T06:03:35.688Z,34.80
2023-03-04T06:06:02.419Z,34.80
2023-03-04T06:08:28.895Z,33.42
2023-03-04T06:10:56.567Z,34.45
2023-03-04T06:13:23.645Z,33.33
2023-03-04T06:15:55.247Z,33.88
2023-03-04T06:18:22.400Z,34.55
2023-03-04T06:20:49.038Z,36.40
2023-03-04T06:23:15.712Z,36.08
2023-03-04T06:25:42.637Z,36.35
2023-03-04T06:28:09.127Z,35.72
2023-03-04T06:30:37.702Z,34.83
2023-03-04T06:33:04.082Z,37.38
2023-03-04T06:35:30.507Z,34.67
2023-03-04T06:37:57.036Z,39.45
2023-03-04T06:40:23.422Z,38.10
2023-03-04T06:42:49.814Z,37.15
2023-03-04T06:45:16.393Z,35.55
2023-03-04T06:47:44.562Z,37.15
2023-03-04T06:50:12.803Z,35.63
2023-03-04T06:52:39.838Z,36.28
2023-03-04T06:55:07.204Z,40.78
2023-03-04T06:57:33.628Z,33.92
2023-03-04T07:00:00.105Z,34.33
2023-03-04T07:02:26.521Z,33.53
2023-03-04T07:04:52.936Z,34.30
2023-03-04T07:07:19.331Z,33.17
2023-03-04T07:09:45.784Z,66.28
2023-03-04T07:12:12.154Z,44.78
2023-03-04T07:14:38.622Z,50.05
2023-03-04T07:17:05.088Z,49.20
2023-03-04T07:19:31.554Z,35.42
2023-03-04T07:21:58.014Z,33.55
2023-03-04T07:24:24.404Z,32.42
2023-03-04T07:26:50.776Z,31.92
2023-03-04T07:29:17.306Z,34.60
2023-03-04T07:31:43.964Z,32.63
2023-03-04T07:34:13.469Z,31.80
2023-03-04T07:36:40.634Z,33.72
2023-03-04T07:39:07.967Z,31.38
2023-03-04T07:41:37.658Z,29.65
2023-03-04T07:44:05.566Z,28.58
2023-03-04T07:46:32.371Z,28.10
2023-03-04T07:48:58.813Z,28.25
2023-03-04T07:51:27.316Z,29.40
2023-03-04T07:53:57.573Z,25.52
2023-03-04T07:56:27.486Z,26.42
2023-03-04T07:58:53.901Z,28.75
2023-03-04T08:01:34.649Z,27.13
2023-03-04T08:04:02.113Z,27.02
2023-03-04T08:06:28.919Z,26.02
2023-03-04T08:08:58.238Z,28.05
2023-03-04T08:11:25.389Z,28.10
2023-03-04T08:13:54.083Z,26.48
2023-03-04T08:16:22.320Z,26.98
2023-03-04T08:18:53.756Z,27.55
2023-03-04T08:21:23.761Z,27.52
2023-03-04T08:23:51.383Z,27.70
2023-03-04T08:26:27.827Z,27.67
2023-03-04T08:29:02.763Z,26.00
2023-03-04T08:31:32.120Z,25.13
2023-03-04T08:34:05.858Z,24.85
2023-03-04T08:36:33.384Z,26.52
2023-03-04T08:39:03.818Z,26.63
2023-03-04T08:41:30.327Z,26.83
2023-03-04T08:43:57.358Z,25.60
2023-03-04T08:46:23.829Z,25.75
2023-03-04T08:48:50.259Z,25.55
2023-03-04T08:51:17.121Z,26.13
2023-03-04T08:53:44.196Z,25.45
2023-03-04T08:56:11.553Z,24.30
2023-03-04T08:58:38.015Z,25.00
2023-03-04T09:01:07.203Z,23.73
2023-03-04T09:03:33.695Z,24.55
2023-03-04T09:06:01.794Z,27.08
2023-03-04T09:08:28.221Z,28.00
2023-03-04T09:10:55.263Z,24.65
2023-03-04T09:13:26.059Z,25.50
2023-03-04T09:15:53.340Z,25.17
2023-03-04T09:18:21.667Z,25.80
2023-03-04T09:20:48.792Z,26.27
2023-03-04T09:23:15.516Z,26.17
2023-03-04T09:25:42.731Z,26.08
2023-03-04T09:28:11.113Z,27.92
2023-03-04T09:30:37.530Z,27.08
2023-03-04T09:33:03.948Z,27.95
2023-03-04T09:35:30.430Z,28.02
2023-03-04T09:37:57.907Z,27.48
2023-03-04T09:40:50.762Z,29.67
2023-03-04T09:43:24.766Z,30.05
2023-03-04T09:45:54.995Z,29.45
2023-03-04T09:48:25.142Z,29.45
2023-03-04T09:51:13.763Z,29.83
2023-03-04T09:53:43.141Z,28.58
2023-03-04T09:56:11.545Z,30.88
2023-03-04T09:59:05.741Z,30.42
2023-03-04T10:01:38.922Z,30.13
2023-03-04T10:04:17.414Z,31.35
2023-03-04T10:06:51.492Z,30.75
2023-03-04T10:09:22.916Z,30.67
2023-03-04T10:12:01.585Z,31.40
2023-03-04T10:14:40.065Z,31.40
2023-03-04T10:17:47.865Z,31.77
2023-03-04T10:22:48.879Z,29.88
2023-03-04T10:25:29.518Z,29.05
2023-03-04T10:28:04.484Z,30.95
2023-03-04T10:30:44.114Z,29.88
2023-03-04T10:33:14.536Z,31.98
2023-03-04T10:35:46.247Z,29.65
2023-03-04T10:38:15.949Z,30.52
2023-03-04T10:40:44.548Z,30.60
2023-03-04T10:43:21.097Z,29.75
2023-03-04T10:45:48.931Z,29.83
2023-03-04T10:48:28.010Z,31.58
2023-03-04T10:50:55.062Z,28.30
2023-03-04T10:53:39.431Z,30.73
2023-03-04T10:56:39.010Z,31.33
2023-03-04T10:59:36.596Z,30.27
2023-03-04T11:02:16.410Z,31.95
2023-03-04T11:04:43.537Z,30.38
2023-03-04T11:07:10.903Z,32.10
2023-03-04T11:09:40.062Z,29.75
2023-03-04T11:12:14.280Z,29.58
2023-03-04T11:14:46.247Z,30.38
2023-03-04T11:17:26.368Z,29.60
2023-03-04T11:20:14.327Z,31.50
2023-03-04T11:22:43.547Z,28.92
2023-03-04T11:25:35.301Z,29.55
2023-03-04T11:28:11.547Z,28.70
2023-03-04T11:30:51.892Z,27.65
2023-03-04T11:33:29.393Z,29.17
2023-03-04T11:36:08.177Z,28.70
2023-03-04T11:38:48.970Z,28.85
2023-03-04T11:41:39.599Z,27.90
2023-03-04T11:44:08.742Z,29.17
2023-03-04T11:46:56.669Z,29.65
2023-03-04T11:49:57.928Z,27.77
2023-03-04T11:52:42.698Z,31.05
2023-03-04T11:55:09.153Z,30.23
2023-03-04T11:57:52.741Z,30.77
2023-03-04T12:00:31.256Z,31.02
2023-03-04T12:03:25.832Z,29.55
2023-03-04T12:06:28.499Z,30.45
2023-03-04T12:09:04.024Z,29.65
2023-03-04T12:11:45.632Z,31.80
2023-03-04T12:14:41.314Z,29.88
2023-03-04T12:17:29.373Z,28.05
2023-03-04T12:19:58.833Z,29.60
2023-03-04T12:22:41.522Z,33.55
2023-03-04T12:25:23.326Z,29.27
2023-03-04T12:28:27.776Z,26.35
2023-03-04T12:31:13.043Z,29.48
2023-03-04T12:34:30.348Z,32.47
2023-03-04T12:37:12.862Z,29.77
2023-03-04T12:40:00.682Z,30.08
2023-03-04T12:42:54.869Z,31.92
2023-03-04T12:45:44.048Z,29.85
2023-03-04T12:48:23.187Z,28.17
2023-03-04T12:51:17.956Z,26.58
2023-03-04T12:54:18.603Z,28.42
2023-03-04T12:56:52.433Z,29.55
2023-03-04T12:59:22.055Z,26.38
2023-03-04T13:02:18.362Z,27.92
2023-03-04T13:04:47.807Z,31.45
2023-03-04T13:07:37.979Z,30.20
2023-03-04T13:10:17.893Z,30.23
2023-03-04T13:12:59.470Z,31.48
2023-03-04T13:15:25.796Z,30.13
2023-03-04T13:17:54.848Z,29.48
2023-03-04T13:20:24.304Z,28.83
2023-03-04T13:23:09.416Z,28.60
2023-03-04T13:25:47.935Z,31.55
2023-03-04T13:28:22.886Z,28.45
2023-03-04T13:30:56.102Z,29.10
2023-03-04T13:33:23.570Z,28.92
2023-03-04T13:35:54.482Z,25.77
2023-03-04T13:38:28.464Z,25.65
2023-03-04T13:41:16.668Z,25.95
2023-03-04T13:43:45.242Z,25.88
2023-03-04T13:46:20.967Z,24.58
2023-03-04T13:48:51.645Z,25.00
2023-03-04T13:51:41.484Z,25.98
2023-03-04T13:54:19.053Z,25.20
2023-03-04T13:57:17.184Z,24.23
2023-03-04T13:59:49.047Z,26.02
2023-03-04T14:02:19.959Z,25.98
2023-03-04T14:05:00.116Z,25.48
2023-03-04T14:07:36.497Z,24.88
2023-03-04T14:12:51.018Z,25.13
2023-03-04T14:15:31.359Z,26.00
2023-03-04T14:18:00.020Z,26.00
2023-03-04T14:20:28.437Z,26.45
2023-03-04T14:22:55.991Z,26.13
2023-03-04T14:25:28.114Z,25.92
2023-03-04T14:28:20.050Z,26.23
2023-03-04T14:30:54.707Z,26.27
2023-03-04T14:33:24.894Z,25.23
2023-03-04T14:35:55.031Z,25.73
2023-03-04T14:38:35.317Z,24.80
2023-03-04T14:41:10.221Z,24.38
2023-03-04T14:44:02.440Z,25.70
2023-03-04T14:46:40.790Z,26.25
2023-03-04T14:49:12.312Z,26.30
2023-03-04T14:51:47.910Z,26.00
2023-03-04T14:54:43.761Z,25.37
2023-03-04T14:57:21.095Z,25.90
2023-03-04T14:59:47.689Z,25.38
2023-03-04T15:02:23.142Z,23.75
2023-03-04T15:04:51.276Z,25.95
2023-03-04T15:07:24.529Z,25.90
2023-03-04T15:09:55.513Z,24.83
2023-03-04T15:12:26.227Z,25.30
2023-03-04T15:14:58.679Z,25.50
2023-03-04T15:17:37.455Z,25.52
2023-03-04T15:20:09.822Z,24.70
2023-03-04T15:22:45.137Z,23.85
2023-03-04T15:25:15.835Z,23.17
2023-03-04T15:27:44.020Z,24.63
2023-03-04T15:30:17.950Z,24.40
2023-03-04T15:32:44.348Z,24.92
2023-03-04T15:35:15.484Z,25.00
2023-03-04T15:37:42.798Z,23.67
2023-03-04T15:40:24.206Z,24.77
2023-03-04T15:42:50.734Z,22.70
2023-03-04T15:45:38.382Z,23.23
2023-03-04T15:48:09.512Z,22.45
2023-03-04T15:50:43.162Z,25.67
2023-03-04T15:53:37.128Z,23.90
2023-03-04T15:56:08.129Z,23.23
2023-03-04T15:58:35.329Z,24.52
2023-03-04T16:01:02.115Z,24.75
2023-03-04T16:03:28.628Z,24.98
2023-03-04T16:05:55.107Z,25.20
2023-03-04T16:08:22.847Z,26.80
2023-03-04T16:10:50.732Z,25.73
2023-03-04T16:13:19.696Z,25.73
2023-03-04T16:15:47.630Z,27.35
2023-03-04T16:18:15.708Z,26.98
2023-03-04T16:20:46.011Z,27.23
2023-03-04T16:23:22.358Z,27.48
2023-03-04T16:28:17.274Z,27.08
2023-03-04T16:30:43.803Z,26.65
2023-03-04T16:33:11.372Z,26.30
2023-03-04T16:35:39.533Z,26.35
2023-03-04T16:38:17.028Z,28.85
2023-03-04T16:40:43.427Z,26.95
2023-03-04T16:43:12.948Z,26.25
2023-03-04T16:45:39.438Z,25.60
2023-03-04T16:48:05.867Z,25.20
2023-03-04T16:50:32.547Z,27.02
2023-03-04T16:52:58.970Z,27.70
2023-03-04T16:55:30.977Z,26.48
2023-03-04T16:57:57.918Z,27.77
2023-03-04T17:00:26.913Z,27.23
2023-03-04T17:03:00.295Z,28.05
2023-03-04T17:05:33.779Z,27.13
2023-03-04T17:08:00.173Z,25.50
2023-03-04T17:10:26.656Z,25.35
2023-03-04T17:12:53.440Z,25.85
2023-03-04T17:15:20.257Z,25.25
2023-03-04T17:17:46.906Z,25.08
2023-03-04T17:20:16.274Z,24.65
2023-03-04T17:22:43.128Z,25.77
2023-03-04T17:25:10.496Z,25.17
2023-03-04T17:27:36.924Z,26.67
2023-03-04T17:30:06.732Z,25.02
2023-03-04T17:32:33.859Z,26.70
2023-03-04T17:35:00.379Z,25.02
2023-03-04T17:37:27.249Z,24.20
2023-03-04T17:39:53.766Z,23.77
2023-03-04T17:42:20.546Z,22.75
2023-03-04T17:44:47.442Z,24.60
2023-03-04T17:47:14.490Z,23.20
2023-03-04T17:49:40.895Z,23.85
2023-03-04T17:52:10.549Z,24.17
2023-03-04T17:54:37.883Z,23.35
2023-03-04T17:57:04.663Z,22.05
2023-03-04T17:59:31.234Z,24.48
2023-03-04T18:01:57.740Z,21.60
2023-03-04T18:04:24.195Z,21.95
2023-03-04T18:06:50.661Z,23.35
2023-03-04T18:09:17.066Z,21.02
2023-03-04T18:11:43.610Z,21.50
2023-03-04T18:14:12.662Z,22.40
2023-03-04T18:16:40.365Z,23.35
2023-03-04T18:19:06.927Z,20.63
2023-03-04T18:21:33.342Z,21.70
2023-03-04T18:23:59.780Z,21.83
2023-03-04T18:26:26.871Z,21.58
2023-03-04T18:28:54.718Z,20.83
2023-03-04T18:31:23.621Z,20.63
2023-03-04T18:33:50.178Z,20.80
2023-03-04T18:36:16.936Z,20.42
2023-03-04T18:38:44.373Z,22.17
2023-03-04T18:41:13.559Z,21.30
2023-03-04T18:43:40.567Z,21.42
2023-03-04T18:46:08.682Z,20.85
2023-03-04T18:48:43.425Z,21.20
2023-03-04T18:51:09.844Z,22.15
2023-03-04T18:53:36.460Z,21.85
2023-03-04T19:33:43.608Z,22.95
2023-03-04T19:36:10.430Z,24.85
2023-03-04T19:38:37.287Z,24.70
2023-03-04T19:41:15.911Z,25.15
2023-03-04T19:43:42.886Z,25.70
2023-03-04T19:46:10.891Z,24.70
2023-03-04T19:48:39.186Z,25.80
2023-03-04T19:51:21.456Z,25.42
2023-03-04T19:53:48.530Z,25.52
2023-03-04T19:56:16.736Z,25.48
2023-03-04T19:58:43.220Z,25.83
2023-03-04T20:01:28.191Z,25.10
2023-03-04T20:03:59.393Z,27.15
2023-03-04T20:06:27.103Z,25.70
2023-03-04T20:08:57.245Z,27.00
2023-03-04T20:11:24.113Z,27.23
2023-03-04T20:13:50.501Z,27.98
2023-03-04T20:16:17.396Z,26.90
2023-03-04T20:18:44.007Z,25.95
2023-03-04T20:21:11.326Z,28.65
2023-03-04T20:23:38.941Z,28.95
2023-03-04T20:26:06.029Z,27.08
2023-03-04T20:28:32.896Z,27.58
2023-03-04T20:31:26.092Z,28.48
2023-03-04T20:33:55.422Z,28.08
2023-03-04T20:36:24.327Z,27.67
2023-03-04T20:38:55.840Z,27.48
2023-03-04T20:41:28.022Z,28.45
2023-03-04T20:43:54.464Z,28.00
2023-03-04T20:46:33.279Z,27.92
2023-03-04T20:49:10.884Z,27.73
2023-03-04T20:51:37.761Z,28.55
2023-03-04T20:54:05.334Z,25.95
2023-03-04T20:56:32.326Z,28.88
2023-03-04T20:59:01.374Z,28.20
2023-03-04T21:01:27.920Z,28.13
2023-03-04T21:03:54.515Z,36.60
2023-03-04T21:06:21.017Z,31.33
2023-03-04T21:08:47.557Z,28.52
2023-03-04T21:11:15.920Z,27.98
2023-03-04T21:13:43.186Z,28.05
2023-03-04T21:16:15.142Z,28.48
2023-03-04T21:18:43.311Z,29.45
2023-03-04T21:21:15.424Z,28.50
2023-03-04T21:23:45.916Z,28.75
2023-03-04T21:26:12.321Z,26.70
2023-03-04T21:28:38.789Z,27.40
2023-03-04T21:31:06.125Z,29.70
2023-03-04T21:33:36.434Z,28.02
2023-03-04T21:36:03.010Z,29.67
2023-03-04T21:38:29.500Z,27.67
2023-03-04T21:40:56.239Z,28.70
2023-03-04T21:43:23.737Z,30.65
2023-03-04T21:45:55.471Z,28.67
2023-03-04T21:48:25.336Z,29.73
2023-03-04T21:50:53.393Z,29.55
2023-03-04T21:53:21.739Z,30.33
2023-03-04T21:55:49.452Z,30.00
2023-03-04T21:58:15.883Z,29.48
2023-03-04T22:00:42.551Z,30.13
2023-03-04T22:03:08.970Z,29.05
2023-03-04T22:05:40.938Z,29.08
2023-03-04T22:08:07.461Z,29.92
2023-03-04T22:10:41.138Z,31.20
2023-03-04T22:13:10.359Z,31.70
2023-03-04T22:15:38.254Z,30.02
2023-03-04T22:18:06.792Z,30.02
2023-03-04T22:20:35.039Z,29.75
2023-03-04T22:23:01.748Z,30.17
2023-03-04T22:25:29.048Z,29.80
2023-03-04T22:27:56.708Z,28.63
2023-03-04T22:30:23.131Z,30.52
2023-03-04T22:32:51.085Z,29.65
2023-03-04T22:35:18.056Z,29.63
2023-03-04T22:37:45.975Z,29.48
2023-03-04T22:40:16.334Z,30.02
2023-03-04T22:42:47.229Z,29.27
2023-03-04T22:45:16.225Z,30.63
2023-03-04T22:47:52.741Z,30.60
2023-03-04T22:50:20.972Z,31.75
2023-03-04T22:52:48.541Z,28.65
2023-03-04T22:55:16.859Z,30.98
2023-03-04T22:57:43.738Z,31.75
2023-03-04T23:00:22.990Z,27.92
2023-03-04T23:02:50.225Z,29.30
2023-03-04T23:05:18.497Z,29.30
2023-03-04T23:07:44.880Z,28.38
2023-03-04T23:10:16.198Z,29.88
2023-03-04T23:12:42.874Z,28.02
2023-03-04T23:15:11.229Z,29.70
2023-03-04T23:17:37.651Z,28.20
2023-03-04T23:20:04.620Z,30.27
2023-03-04T23:22:32.396Z,29.10
2023-03-04T23:24:58.974Z,29.98
2023-03-04T23:27:25.681Z,29.50
2023-03-04T23:29:52.119Z,30.00
2023-03-04T23:32:18.643Z,29.08
2023-03-04T23:34:46.161Z,29.00
2023-03-04T23:37:12.556Z,29.27
2023-03-04T23:39:38.965Z,30.80
2023-03-04T23:42:05.464Z,29.23
2023-03-04T23:44:31.856Z,28.95
2023-03-04T23:46:59.329Z,29.80
2023-03-04T23:49:25.726Z,28.75
2023-03-04T23:51:52.123Z,29.90
2023-03-04T23:54:18.512Z,30.38
2023-03-04T23:56:44.930Z,27.75
2023-03-04T23:59:12.265Z,31.25
